Aurora, NC

8:25 PM EST on February 08, 2016 (GMT -0500)
S.W.Snowden Elementary School | | Change Station
CLOSE
Current Station
Personal Weather Station
Location: Aurora, NC
Elevation: 36 ft
Nearby Weather Stations

Elev 36 ft 35.31 °N, 76.79 °W | Updated 10 minutes ago

Mostly Cloudy
Mostly Cloudy
45.3 °F
Feels Like 45 °F
N
0.0
Wind Variable Wind from South
Gusts 1.0 mph

Today
High -- | Low -- °F
--% Chance of Precip.
Yesterday
High -- | Low -- °F
Precip. -- in
Pressure 29.69 in
Visibility 10.0 miles
Clouds Mostly Cloudy 9000 ft
Windchill 45 °F
Dew Point 38 °F
Humidity 75%
Rainfall 0.01 in
Snow Depth Not available.
7:01 AM 5:42 PM
New Moon, 0% visible
METAR KEWN 090054Z 00000KT 10SM BKN090 06/02 A2969 RMK AO2 SLP054 T00560022
Pressure 29.69 in
Visibility 10.0 miles
Clouds Mostly Cloudy 9000 ft
Windchill 45 °F
Dew Point 38 °F
Humidity 75%
Rainfall 0.01 in
Snow Depth Not available.
7:01 AM 5:42 PM
New Moon, 0% visible
METAR KEWN 090054Z 00000KT 10SM BKN090 06/02 A2969 RMK AO2 SLP054 T00560022

10-Day Weather Forecast

Almanac

Astronomy

Feb. 08, 2016 Rise Set
Actual Time
Civil Twilight
Nautical Twilight
Astronomical Twilight
Moon
Length of Visible Light
Length of Day
Tomorrow will be .
, % of the Moon is Illuminated

Today's Extremes

State Highs State Lows

Community

WunderPhotos

Upload Photos

1,891,527 photos uploaded!

WunderBlog® & News

Nearby

Air Quality

  Air Quality AQ Index Pollutant
Not available.

Snow Depth

Station Depth Elevation

Earthquake Activity

City Distance Mag. Time & Date
Minimum magnitude displayed is 2.5.

Coastal Water Temperatures

Place Temperature

Stations

Nearby Weather Stations

Station Location Temp. Windchill Dew Point Humidity Wind Precip. Elev Updated Type
                   

Watches & Warnings

There are currently no watches in effect.